Airfield :
LOGIN :

Register | Disclaimer

   EN    FR    IT 

 










Legend :    VFR   Marginal VFR   IFR   Intensive IFR   Very Intensive IFR
Visi :
Ceiling :
>= 8 km
>= 3000ft
5 to 8 km
1000 to 3000 ft
1500m to 5 km
500 to 1000 ft
800 to 1500m
200 to 500 ft
< 800m
< 200 ft
Symbols :   Thunderstorms  Fog  Heavy snow  Heavy precipitations  Wind > 20 kt
SIGMETs :     Misc.  Thunderstorms  Icing  Turbulence  Mountain Waves  Volcanic Ashes






- Airport Elevation : 74 ft
- IATA code : EIN


EHEH - Eindhoven

CURRENT METAR :
  • 171225Z AUTO 22011KT 170V260 9999 SCT015CB SCT025 BKN039 07/04 Q1011 WHT TEMPO 34015G25KT 4000 SHRAGS TSRA SCT015 SCT018CB BKN020

EXPIRED METARs :
  • 171155Z AUTO 21007KT 170V250 9999 FEW027 SCT034 OVC100 10/05 Q1011 BLU TEMPO 34015G25KT 4000 SHRAGS TSRA SCT015 SCT018CB BKN020
  • 171125Z AUTO 23005KT 170V280 9999 BKN100 OVC160 09/04 Q1012 BLU TEMPO 34015G25KT 4000 SHRAGS TSRA SCT015 SCT018CB BKN020
  • 171055Z AUTO 32002KT 9999 BKN081 OVC086 09/04 Q1012 BLU TEMPO 34015G25KT 4000 SHRAGS TSRA SCT015 SCT018CB BKN020
  • 171036Z AUTO 09003KT 360V160 9999 FEW016CB BKN070 OVC076 07/03 Q1012 BLU TEMPO 34015G25KT 4000 SHRAGS TSRA SCT015 SCT018CB BKN020
  • 171025Z AUTO 08005KT 040V120 9999 FEW015CB BKN062 OVC068 06/03 Q1012 BLU TEMPO 34015G25KT 4000 SHRAGS TSRA SCT015 SCT018CB BKN020
  • 171006Z AUTO 02008KT 320V070 9999 -RA FEW011 BKN015CB BKN024 05/03 Q1012 WHT TEMPO 34015G25KT 4000 SHRAGS TSRA SCT015 SCT018CB BKN020
  • 170955Z AUTO 33007KT 270V020 9999 SHRA FEW014 SCT015CB OVC023 04/03 Q1013 WHT TEMPO 34015G25KT 4000 SHRAGS TSRA SCT015 SCT018CB BKN020
  • 170945Z AUTO 31007KT 250V010 9999 RA SCT015CB SCT018 OVC025 04/03 Q1013 WHT TEMPO 34015G30KT 3000 SHRAGS TSRA SCT015 SCT018CB BKN020
  • 170929Z AUTO 31011KT 250V350 9000 -SHRA SCT015CB SCT020 BKN024 04/03 Q1013 WHT TEMPO 34015G30KT 3000 SHRAGS TSRA SCT015 SCT018CB BKN020
  • 170904Z AUTO 30013G27KT 260V030 9999 FEW015CB SCT026 BKN030 BKN043 07/03 Q1012 BLU TEMPO 36015G30KT 3000 SHRAGS TSRA SCT012 SCT015CB BKN020
  • 170845Z AUTO 32008KT 250V360 9999 FEW024 BKN120 10/04 Q1012 BLU TEMPO 4000 SHRAGS TSRA SCT012 SCT015CB BKN020
  • 170831Z AUTO 30006KT 250V030 9999 FEW022 BKN140 08/05 Q1012 BLU TEMPO 4000 SHRAGS SCT015 SCT020CB
  • 170825Z AUTO 30009KT 250V360 9999 -SHRA BKN020 BKN026 OVC031 08/04 Q1012 WHT TEMPO 4000 SHRA SCT015 SCT020CB
  • 170812Z AUTO 31007KT 230V020 9999 SCT019 BKN022 BKN027 09/05 Q1012 WHT TEMPO FEW020CB
  • 170755Z AUTO 31006KT 250V360 9999 SCT017 BKN021 OVC120 08/05 Q1012 WHT TEMPO BKN018
  • 170739Z AUTO 30006KT 270V020 9999 FEW018 OVC140 08/05 Q1012 BLU NOSIG

TAF TAF EHEH
Valid from the 17 at 12:00 until the 18 at 18:00 UTC


171140Z 1712/1818 31007KT 9999 SCT025 SCT045
TEMPO 1712/1722 VRB10G20KT 4500 -SHRAGS FEW015 SCT018 SCT020CB
PROB40
TEMPO 1712/1720 34016G26KT 2000 SHRAGS TSRA FEW010 SCT015 SCT018CB



MET'MAP, your aeronautical weather chart ! - Copyright ORBIFLY December 2007 - Disclaimer

ORBIFLY MET'MAP TEAM :

Programming & Development : Alexandra Zaïnal
Original concept : Baudouin d'Aumeries
Technical & hardware support : Manuel Goepfert
Assistance : Marc-Olivier Méhu




SOURCES & CREDITS :

   NOAA